Time;durP1;ratioP1;P1;durP2;ratioP2;P2;SDS_P1;SDS_P2;PMS_P1;PMS_P2;Temp;Humidity;BMP_temperature;BMP_pressure;BME280_temperature;BME280_humidity;BME280_pressure;Samples;Min_cycle;Max_cycle;Signal;HPM_P1;HPM_P2
2022/04/19 00:00:42;;;;;;;4.15;2.40;;;;;;;4.08;66.86;148688.27;1764654;80;21497;-69
2022/04/19 00:03:11;;;;;;;5.40;2.47;;;;;;;4.05;66.96;148680.53;1764598;81;21430;-69
2022/04/19 00:05:41;;;;;;;5.65;2.52;;;;;;;3.96;67.13;148658.58;1764379;81;20980;-68
2022/04/19 00:08:11;;;;;;;3.87;2.35;;;;;;;3.96;67.13;148658.58;1764725;80;21509;-68
2022/04/19 00:10:39;;;;;;;3.33;2.20;;;;;;;3.89;67.45;148641.83;1764450;81;22208;-68
2022/04/19 00:13:09;;;;;;;3.92;2.42;;;;;;;3.86;67.78;148635.36;1764861;80;20964;-68
2022/04/19 00:15:38;;;;;;;3.52;2.15;;;;;;;3.79;68.06;148615.98;1764780;81;21131;-68
2022/04/19 00:18:08;;;;;;;4.42;2.02;;;;;;;3.73;68.35;148603.09;1764571;81;20956;-64
2022/04/19 00:20:39;;;;;;;4.50;2.40;;;;;;;3.67;68.71;148586.30;1764615;80;21103;-64
2022/04/19 00:23:13;;;;;;;3.85;2.40;;;;;;;3.60;68.94;148569.50;1764566;81;20999;-64
2022/04/19 00:25:41;;;;;;;3.25;2.20;;;;;;;3.53;69.13;148551.45;1764443;81;20905;-64
2022/04/19 00:28:11;;;;;;;3.50;2.42;;;;;;;3.47;69.26;148535.97;1764233;81;21478;-65
2022/04/19 00:30:38;;;;;;;3.00;2.05;;;;;;;3.41;69.33;148523.03;1764562;81;20984;-64
2022/04/19 00:33:07;;;;;;;3.33;2.08;;;;;;;3.34;69.45;148504.97;1759503;80;21032;-69
2022/04/19 00:35:36;;;;;;;3.72;2.30;;;;;;;3.29;69.62;148492.09;1745822;80;21250;-69
2022/04/19 00:38:04;;;;;;;4.05;2.45;;;;;;;3.22;69.68;148474.03;1745553;81;21494;-69
2022/04/19 00:40:32;;;;;;;3.77;2.58;;;;;;;3.16;69.80;148459.83;1745434;80;20934;-69
2022/04/19 00:43:00;;;;;;;4.90;2.60;;;;;;;3.11;69.92;148448.20;1745013;80;21008;-68
2022/04/19 00:45:27;;;;;;;3.05;2.30;;;;;;;3.07;70.05;148436.58;1745514;80;21080;-69
2022/04/19 00:47:55;;;;;;;3.25;2.35;;;;;;;3.03;70.13;148427.58;1744920;82;21223;-69
2022/04/19 00:50:22;;;;;;;3.52;2.30;;;;;;;3.00;70.21;148419.84;1745403;81;21479;-64
2022/04/19 00:52:51;;;;;;;4.67;2.72;;;;;;;2.96;70.32;148409.48;1744999;81;20961;-64
2022/04/19 00:55:20;;;;;;;4.53;2.40;;;;;;;2.91;70.44;148396.59;1745640;81;21024;-65
2022/04/19 00:57:51;;;;;;;3.77;2.27;;;;;;;2.84;70.62;148379.81;1745329;80;20949;-64
2022/04/19 01:00:20;;;;;;;3.85;2.40;;;;;;;2.79;70.93;148366.92;1745591;81;21215;-68
2022/04/19 01:03:04;;;;;;;4.35;2.50;;;;;;;2.72;71.24;148350.16;1745509;81;21486;-68
2022/04/19 01:05:32;;;;;;;3.50;2.30;;;;;;;2.66;71.53;148334.69;1745258;81;21349;-68
2022/04/19 01:08:01;;;;;;;3.47;2.50;;;;;;;2.61;71.69;148323.06;1745361;81;21021;-64
2022/04/19 01:10:30;;;;;;;4.35;2.85;;;;;;;2.57;71.59;148312.75;1745569;80;20926;-65
2022/04/19 01:13:18;;;;;;;4.62;2.70;;;;;;;2.50;71.41;148294.72;1744915;81;20961;-64
2022/04/19 01:15:48;;;;;;;5.05;2.75;;;;;;;2.41;71.47;148272.78;1744753;81;21047;-64
2022/04/19 01:18:20;;;;;;;5.47;2.92;;;;;;;2.32;71.48;148249.55;1745661;82;21068;-64
2022/04/19 01:20:44;;;;;;;6.55;2.90;;;;;;;2.24;71.63;148231.52;1745030;80;21084;-63
2022/04/19 01:23:18;;;;;;;4.62;2.83;;;;;;;2.18;71.77;148216.06;1745539;81;20953;-68
2022/04/19 01:25:45;;;;;;;7.22;2.75;;;;;;;2.11;71.94;148199.28;1745715;81;22131;-69
2022/04/19 01:28:14;;;;;;;4.53;2.75;;;;;;;2.06;72.13;148185.09;1745641;81;20974;-65
2022/04/19 01:30:45;;;;;;;5.17;2.95;;;;;;;2.02;72.26;148174.78;1745207;81;21035;-65
2022/04/19 01:33:15;;;;;;;5.50;2.87;;;;;;;1.96;72.52;148160.59;1749496;80;21036;-64
2022/04/19 01:35:44;;;;;;;4.95;2.70;;;;;;;1.89;72.56;148143.88;1764744;81;21003;-64
2022/04/19 01:38:13;;;;;;;4.50;3.02;;;;;;;1.85;72.70;148133.53;1764475;80;21208;-64
2022/04/19 01:40:40;;;;;;;4.17;2.72;;;;;;;1.80;73.00;148120.64;1764016;81;21036;-64
2022/04/19 01:43:11;;;;;;;4.55;2.75;;;;;;;1.77;73.17;148112.92;1764167;80;21295;-65
2022/04/19 01:45:41;;;;;;;4.85;3.10;;;;;;;1.73;73.54;148103.88;1763370;81;21037;-65
2022/04/19 01:48:10;;;;;;;7.10;3.10;;;;;;;1.68;73.76;148091.00;1764112;81;21056;-70
2022/04/19 01:50:40;;;;;;;5.10;2.65;;;;;;;1.64;73.80;148081.97;1764892;80;20889;-70
2022/04/19 01:53:07;;;;;;;5.37;2.90;;;;;;;1.61;73.86;148074.23;1764514;81;21054;-69
2022/04/19 01:55:35;;;;;;;5.78;2.65;;;;;;;1.57;73.86;148065.25;1764307;81;20893;-69
2022/04/19 01:58:05;;;;;;;7.58;2.60;;;;;;;1.53;74.00;148053.64;1764033;81;20972;-68
2022/04/19 02:00:37;;;;;;;5.47;2.60;;;;;;;1.53;74.07;148053.64;1764830;81;21011;-68
2022/04/19 02:03:05;;;;;;;3.08;2.35;;;;;;;1.52;74.16;148051.06;1764304;81;21246;-68
2022/04/19 02:05:32;;;;;;;6.10;2.90;;;;;;;1.50;74.25;148045.91;1764451;81;20850;-68
2022/04/19 02:08:01;;;;;;;3.70;2.70;;;;;;;1.49;74.45;148044.61;1764252;81;21012;-69
2022/04/19 02:10:29;;;;;;;4.25;2.92;;;;;;;1.47;74.50;148039.45;1764587;81;21008;-63
2022/04/19 02:12:58;;;;;;;4.87;3.00;;;;;;;1.45;74.68;148033.05;1764202;81;20960;-63
2022/04/19 02:15:40;;;;;;;5.30;2.90;;;;;;;1.41;74.73;148025.27;1760784;81;21154;-63
2022/04/19 02:18:10;;;;;;;5.33;3.45;;;;;;;1.39;74.76;148018.86;1763807;81;20972;-64
2022/04/19 02:20:38;;;;;;;4.22;2.90;;;;;;;1.36;74.76;148012.39;1764526;81;21414;-65
2022/04/19 02:23:05;;;;;;;5.22;3.47;;;;;;;1.34;74.81;148007.25;1764022;81;21438;-65
2022/04/19 02:25:34;;;;;;;5.65;2.80;;;;;;;1.34;74.83;148007.25;1764409;80;20897;-65
2022/04/19 02:28:06;;;;;;;5.50;3.10;;;;;;;1.32;74.89;148002.09;1763936;80;20984;-66
2022/04/19 02:30:34;;;;;;;5.17;3.27;;;;;;;1.30;75.02;147996.95;1764659;80;20926;-68
2022/04/19 02:33:03;;;;;;;7.25;3.42;;;;;;;1.26;75.10;147987.91;1763597;81;21067;-71
2022/04/19 02:35:31;;;;;;;3.40;2.62;;;;;;;1.22;75.24;147976.36;1781435;80;20940;-70
2022/04/19 02:37:59;;;;;;;5.20;3.45;;;;;;;1.20;75.33;147972.47;1749794;80;21075;-70
2022/04/19 02:40:29;;;;;;;4.97;2.87;;;;;;;1.17;75.33;147963.44;1780722;80;21870;-66
2022/04/19 02:42:59;;;;;;;5.35;3.00;;;;;;;1.13;75.34;147955.72;1780842;80;21015;-65
2022/04/19 02:45:27;;;;;;;5.30;2.85;;;;;;;1.09;75.42;147945.42;1781023;80;21011;-64
2022/04/19 02:48:05;;;;;;;6.67;3.10;;;;;;;1.07;75.52;147940.27;1780044;80;21104;-67
2022/04/19 02:50:41;;;;;;;5.15;3.40;;;;;;;1.04;75.51;147932.55;1781340;80;20917;-69
2022/04/19 02:53:08;;;;;;;5.20;3.30;;;;;;;1.02;75.64;147927.41;1750508;80;21451;-69
2022/04/19 02:55:38;;;;;;;4.12;2.77;;;;;;;0.98;75.87;147918.37;1780536;80;21005;-66
2022/04/19 02:58:07;;;;;;;6.33;3.15;;;;;;;0.97;75.96;147914.48;1780661;80;21224;-71
2022/04/19 03:00:37;;;;;;;5.25;3.25;;;;;;;0.95;76.24;147910.64;1780803;80;21343;-69
2022/04/19 03:03:05;;;;;;;5.05;3.30;;;;;;;0.93;76.41;147904.19;1780672;80;21723;-69
2022/04/19 03:05:38;;;;;;;4.85;3.15;;;;;;;0.88;76.52;147891.31;1780740;80;20873;-65
2022/04/19 03:08:04;;;;;;;5.47;3.12;;;;;;;0.84;76.91;147882.28;1780169;80;21091;-66
2022/04/19 03:10:33;;;;;;;5.17;3.08;;;;;;;0.80;77.01;147872.00;1780628;80;20897;-67
2022/04/19 03:13:02;;;;;;;5.00;3.17;;;;;;;0.77;77.20;147865.53;1780535;80;21036;-66
2022/04/19 03:15:36;;;;;;;5.90;3.15;;;;;;;0.75;77.47;147859.12;1780700;80;20917;-66
2022/04/19 03:18:05;;;;;;;4.40;3.10;;;;;;;0.71;77.73;147850.09;1780392;80;21259;-67
2022/04/19 03:20:38;;;;;;;5.17;3.20;;;;;;;0.69;77.74;147844.95;1780301;80;21059;-69
2022/04/19 03:28:41;;;;;;;5.83;3.50;;;;;;;0.65;77.94;147834.66;1780342;80;21334;-68
2022/04/19 03:31:09;;;;;;;5.40;3.20;;;;;;;0.65;78.16;147835.92;1780437;80;21064;-69
2022/04/19 03:33:39;;;;;;;6.15;3.52;;;;;;;0.65;78.19;147835.92;1779027;80;21003;-68
2022/04/19 03:36:11;;;;;;;5.65;3.22;;;;;;;0.66;78.24;147837.23;1764716;81;21047;-68
2022/04/19 03:38:36;;;;;;;6.08;3.30;;;;;;;0.67;78.34;147841.11;1764280;81;20946;-69
2022/04/19 03:41:03;;;;;;;6.42;3.15;;;;;;;0.69;78.32;147846.25;1763738;80;21099;-68
2022/04/19 03:43:32;;;;;;;7.33;4.20;;;;;;;0.73;78.37;147855.25;1764223;80;20953;-68
2022/04/19 03:46:00;;;;;;;7.85;3.00;;;;;;;0.79;78.41;147869.42;1764382;81;21562;-67
2022/04/19 03:48:29;;;;;;;5.62;3.45;;;;;;;0.89;78.46;147893.89;1764607;81;21013;-63
2022/04/19 03:50:57;;;;;;;6.28;3.42;;;;;;;0.98;78.24;147918.37;1764078;80;21046;-68
2022/04/19 03:53:25;;;;;;;5.67;3.50;;;;;;;1.09;77.96;147945.42;1764497;81;21020;-65
2022/04/19 03:55:52;;;;;;;6.78;3.50;;;;;;;1.23;77.63;147980.19;1764885;81;21239;-68
2022/04/19 03:58:19;;;;;;;4.95;3.10;;;;;;;1.35;77.16;148009.81;1764788;81;21063;-70
2022/04/19 04:00:49;;;;;;;4.95;3.12;;;;;;;1.47;76.92;148038.19;1764890;81;21083;-70
2022/04/19 04:03:17;;;;;;;6.30;3.77;;;;;;;1.59;76.61;148069.09;1764780;80;21024;-70
2022/04/19 04:05:45;;;;;;;7.45;3.20;;;;;;;1.74;76.17;148105.19;1764938;81;21079;-69
2022/04/19 04:08:14;;;;;;;5.62;3.10;;;;;;;1.87;75.58;148138.67;1764779;81;20980;-70
2022/04/19 04:10:45;;;;;;;5.30;3.20;;;;;;;1.98;75.42;148167.06;1764470;81;20976;-68
2022/04/19 04:13:13;;;;;;;5.83;3.30;;;;;;;2.12;74.84;148200.59;1764729;81;21043;-70
2022/04/19 04:15:41;;;;;;;5.55;3.50;;;;;;;2.24;74.29;148231.52;1764973;81;21019;-67
2022/04/19 04:18:12;;;;;;;4.12;2.52;;;;;;;2.35;73.32;148257.33;1764847;81;21052;-67
2022/04/19 04:20:40;;;;;;;6.62;3.47;;;;;;;2.45;72.69;148283.09;1764629;81;20913;-64
2022/04/19 04:23:07;;;;;;;5.17;2.80;;;;;;;2.53;72.13;148303.70;1764525;81;21549;-65
2022/04/19 04:25:36;;;;;;;5.08;3.08;;;;;;;2.65;71.57;148332.11;1764863;81;21299;-69
2022/04/19 04:28:06;;;;;;;6.05;3.37;;;;;;;2.77;71.21;148363.09;1764329;81;21007;-68
2022/04/19 04:30:35;;;;;;;4.22;3.37;;;;;;;2.91;70.73;148396.59;1763004;81;20988;-71
2022/04/19 04:33:04;;;;;;;4.37;3.02;;;;;;;3.03;69.86;148427.58;1764592;80;21059;-69
2022/04/19 04:35:34;;;;;;;6.72;3.20;;;;;;;3.15;69.49;148458.52;1750183;80;20994;-68
2022/04/19 04:38:01;;;;;;;6.20;3.58;;;;;;;3.29;68.56;148492.09;1745221;80;21550;-71
2022/04/19 04:40:31;;;;;;;5.03;3.15;;;;;;;3.39;67.91;148517.88;1745328;81;20985;-70
2022/04/19 04:42:59;;;;;;;5.90;3.10;;;;;;;3.48;67.19;148538.56;1745396;80;21030;-70
2022/04/19 04:45:28;;;;;;;5.90;3.75;;;;;;;3.58;66.94;148565.66;1730771;82;21232;-70
2022/04/19 04:50:43;;;;;;;5.42;3.27;;;;;;;3.77;66.09;148610.81;1744916;80;21052;-70
2022/04/19 04:53:11;;;;;;;4.83;3.20;;;;;;;3.84;65.63;148628.88;1745208;81;21051;-69
2022/04/19 04:55:41;;;;;;;4.58;3.10;;;;;;;3.88;65.95;148639.25;1745553;81;21022;-71
2022/04/19 04:58:11;;;;;;;4.83;2.80;;;;;;;3.91;65.90;148646.98;1745209;81;21000;-69
2022/04/19 05:00:40;;;;;;;4.75;3.00;;;;;;;3.97;65.64;148661.16;1745505;81;20984;-69
2022/04/19 05:03:08;;;;;;;4.65;2.70;;;;;;;4.10;65.58;148693.48;1745293;80;21084;-69
2022/04/19 05:05:37;;;;;;;4.97;3.15;;;;;;;4.26;64.59;148734.77;1745444;81;21032;-65
2022/04/19 05:08:06;;;;;;;7.75;3.80;;;;;;;4.34;63.92;148754.14;1745101;81;21060;-64
2022/04/19 05:10:35;;;;;;;6.33;3.65;;;;;;;4.42;64.34;148773.53;1745280;81;20965;-66
2022/04/19 05:13:05;;;;;;;6.60;2.72;;;;;;;4.59;63.67;148817.45;1744992;81;21425;-69
2022/04/19 05:15:35;;;;;;;4.83;3.02;;;;;;;4.77;63.21;148861.39;1706895;82;21489;-69
2022/04/19 05:18:03;;;;;;;5.20;3.00;;;;;;;4.92;62.85;148898.84;1745149;82;21012;-70
2022/04/19 05:20:30;;;;;;;5.97;3.00;;;;;;;5.10;62.88;148944.06;1745570;82;21463;-65
2022/04/19 05:22:58;;;;;;;4.30;2.77;;;;;;;5.32;62.00;148998.34;1730378;82;21471;-71
2022/04/19 05:25:26;;;;;;;4.78;3.22;;;;;;;5.45;61.01;149031.97;1745492;82;20945;-72
2022/04/19 05:27:55;;;;;;;5.78;3.30;;;;;;;5.55;60.03;149055.22;1730659;82;21045;-70
2022/04/19 05:30:23;;;;;;;3.98;2.77;;;;;;;5.63;58.96;149075.89;1745571;81;20981;-70
2022/04/19 05:32:52;;;;;;;6.50;2.67;;;;;;;5.63;58.76;149075.89;1745370;81;21033;-70
2022/04/19 05:35:19;;;;;;;6.42;2.92;;;;;;;5.71;58.74;149096.59;1745224;80;21235;-69
2022/04/19 05:37:46;;;;;;;4.50;3.00;;;;;;;5.87;58.75;149135.41;1745559;81;21514;-70
2022/04/19 05:40:15;;;;;;;5.67;3.08;;;;;;;6.16;57.93;149209.13;1745585;80;21096;-69
2022/04/19 05:42:43;;;;;;;4.08;2.40;;;;;;;6.53;56.29;149301.02;1744935;81;21104;-69
2022/04/19 05:45:10;;;;;;;3.62;2.25;;;;;;;6.73;54.34;149351.45;1745022;81;21538;-67
2022/04/19 05:47:38;;;;;;;5.03;2.52;;;;;;;6.74;53.39;149352.72;1744806;81;21490;-66
2022/04/19 05:50:07;;;;;;;2.65;2.10;;;;;;;6.78;53.47;149363.11;1744744;81;21109;-67
2022/04/19 05:52:35;;;;;;;4.33;2.52;;;;;;;6.85;53.31;149381.22;1745015;81;21045;-65
2022/04/19 05:55:08;;;;;;;2.83;2.02;;;;;;;6.93;53.51;149399.31;1730458;82;21051;-68
2022/04/19 05:57:35;;;;;;;2.98;2.02;;;;;;;6.83;53.18;149374.72;1745587;82;21077;-66
2022/04/19 06:00:06;;;;;;;5.37;2.80;;;;;;;6.83;53.57;149374.72;1745085;81;21052;-66
2022/04/19 06:05:23;;;;;;;4.25;2.40;;;;;;;6.63;52.83;149325.59;1745771;81;21466;-65
2022/04/19 06:07:52;;;;;;;3.58;2.27;;;;;;;6.61;53.16;149320.38;1745128;82;21020;-66
2022/04/19 06:10:20;;;;;;;2.95;2.37;;;;;;;6.66;53.38;149333.36;1745544;81;21088;-67
2022/04/19 06:12:51;;;;;;;3.67;2.37;;;;;;;6.78;53.08;149361.80;1745150;80;21482;-65
2022/04/19 06:15:18;;;;;;;3.00;1.95;;;;;;;6.84;52.43;149378.63;1745414;81;21017;-66
2022/04/19 06:17:45;;;;;;;2.77;1.82;;;;;;;6.88;52.55;149387.70;1745573;81;20977;-66
2022/04/19 06:20:16;;;;;;;3.05;2.17;;;;;;;6.99;52.52;149414.88;1744728;80;20992;-67
2022/04/19 06:22:44;;;;;;;3.47;1.75;;;;;;;7.18;52.01;149462.75;1745234;81;21025;-65
2022/04/19 06:25:13;;;;;;;3.83;2.08;;;;;;;7.29;51.65;149489.94;1745445;81;21038;-66
2022/04/19 06:27:41;;;;;;;2.75;1.40;;;;;;;7.41;50.83;149521.03;1745282;81;21009;-66
2022/04/19 06:30:11;;;;;;;3.55;1.80;;;;;;;7.54;49.81;149553.39;1745283;81;21244;-66
2022/04/19 06:32:41;;;;;;;3.10;2.00;;;;;;;7.60;49.11;149567.59;1745164;81;20968;-70
2022/04/19 06:35:10;;;;;;;7.00;2.25;;;;;;;7.67;48.86;149585.75;1732300;81;21063;-70
2022/04/19 06:37:37;;;;;;;2.62;1.90;;;;;;;7.72;48.89;149598.69;1756325;81;22252;-69
2022/04/19 06:40:11;;;;;;;7.33;1.70;;;;;;;7.81;48.99;149619.39;1755889;80;20984;-65
2022/04/19 06:42:40;;;;;;;4.30;1.80;;;;;;;7.94;48.61;149653.08;1756240;81;20981;-65
2022/04/19 06:45:11;;;;;;;3.85;1.65;;;;;;;8.07;47.93;149684.14;1751414;81;21079;-65
2022/04/19 06:47:40;;;;;;;2.27;1.70;;;;;;;8.16;47.39;149708.75;1756350;81;20921;-66
2022/04/19 06:50:10;;;;;;;2.30;1.50;;;;;;;8.24;46.79;149728.19;1755683;81;21055;-65
2022/04/19 06:52:38;;;;;;;4.58;1.80;;;;;;;8.25;46.21;149729.52;1756262;80;20941;-69
2022/04/19 06:55:08;;;;;;;2.45;1.70;;;;;;;8.26;46.69;149732.09;1753967;81;21149;-69
2022/04/19 06:57:39;;;;;;;7.58;1.77;;;;;;;8.30;46.92;149742.45;1756084;81;21446;-64
2022/04/19 07:00:09;;;;;;;3.02;1.90;;;;;;;8.24;46.74;149726.92;1756106;81;21119;-63
2022/04/19 07:02:37;;;;;;;2.17;1.52;;;;;;;8.25;46.96;149729.52;1709114;81;21206;-64
2022/04/19 07:05:07;;;;;;;2.08;1.55;;;;;;;8.28;46.63;149738.55;1732191;81;21032;-64
2022/04/19 07:07:42;;;;;;;3.02;1.70;;;;;;;8.27;45.84;149735.97;1756238;81;20901;-65
2022/04/19 07:10:11;;;;;;;8.08;1.70;;;;;;;8.26;46.43;149733.38;1756375;81;20996;-64
2022/04/19 07:12:39;;;;;;;3.35;1.40;;;;;;;8.28;46.82;149738.55;1756162;81;21117;-64
2022/04/19 07:15:18;;;;;;;4.12;1.70;;;;;;;8.27;45.93;149735.97;1756318;80;21020;-64
2022/04/19 07:17:50;;;;;;;5.08;1.42;;;;;;;8.23;45.84;149725.61;1755600;81;21003;-70
2022/04/19 07:28:39;;;;;;;4.20;1.57;;;;;;;8.25;44.73;149730.78;1756300;81;21335;-67
2022/04/19 07:31:08;;;;;;;2.40;1.20;;;;;;;8.26;44.89;149733.38;1763389;80;21064;-64
2022/04/19 07:33:38;;;;;;;3.95;1.10;;;;;;;8.33;44.81;149748.95;1771096;80;20969;-65
2022/04/19 07:36:06;;;;;;;2.27;1.40;;;;;;;8.46;44.51;149782.61;1744833;81;20999;-65
2022/04/19 07:38:35;;;;;;;2.10;1.35;;;;;;;8.58;43.68;149813.78;1771227;79;20913;-64
2022/04/19 07:41:06;;;;;;;3.00;1.60;;;;;;;8.60;44.17;149818.95;1756469;81;21270;-64
2022/04/19 07:43:34;;;;;;;2.60;1.50;;;;;;;8.70;43.07;149842.25;1738378;81;20945;-64
2022/04/19 07:46:04;;;;;;;1.87;1.17;;;;;;;8.81;43.33;149869.47;1742625;81;21168;-65
2022/04/19 07:48:32;;;;;;;2.08;1.37;;;;;;;8.92;43.12;149896.69;1764317;81;21048;-68
2022/04/19 07:50:59;;;;;;;2.02;1.10;;;;;;;8.97;42.22;149910.97;1766155;79;21035;-69
2022/04/19 07:53:27;;;;;;;2.37;1.52;;;;;;;8.96;42.08;149908.38;1764857;80;21528;-69
2022/04/19 07:55:57;;;;;;;1.75;1.40;;;;;;;8.98;42.86;149912.28;1764280;80;21675;-69
2022/04/19 07:58:25;;;;;;;3.65;1.55;;;;;;;9.09;42.49;149940.77;1764440;81;21021;-69
2022/04/19 08:00:52;;;;;;;4.58;1.45;;;;;;;9.19;42.32;149964.12;1764694;81;20996;-68
2022/04/19 08:03:22;;;;;;;2.45;1.50;;;;;;;9.24;42.11;149977.08;1764954;81;21063;-68
2022/04/19 08:05:50;;;;;;;3.25;1.50;;;;;;;9.25;41.60;149979.67;1764609;81;21222;-69
2022/04/19 08:08:21;;;;;;;2.50;1.52;;;;;;;9.27;42.70;149984.86;1764546;81;21019;-69
2022/04/19 08:10:50;;;;;;;3.40;1.20;;;;;;;9.33;42.36;150000.41;1764445;81;21051;-69
2022/04/19 08:13:18;;;;;;;1.87;1.30;;;;;;;9.31;41.49;149996.53;1742711;81;21072;-69
2022/04/19 08:15:46;;;;;;;2.27;1.50;;;;;;;9.28;41.21;149987.44;1764852;80;20965;-69
2022/04/19 08:18:14;;;;;;;4.03;1.80;;;;;;;9.26;42.04;149982.27;1764647;81;21186;-69
2022/04/19 08:20:44;;;;;;;3.35;1.27;;;;;;;9.27;42.65;149986.13;1734192;82;20917;-68
2022/04/19 08:23:11;;;;;;;8.45;1.55;;;;;;;9.37;42.70;150009.48;1751916;81;21099;-66
2022/04/19 08:25:43;;;;;;;3.90;1.60;;;;;;;9.56;42.63;150057.45;1764061;80;20940;-64
2022/04/19 08:28:11;;;;;;;3.77;1.65;;;;;;;9.67;42.22;150086.00;1764407;81;21051;-65
2022/04/19 08:30:38;;;;;;;4.12;1.20;;;;;;;9.70;41.65;150093.78;1764605;81;21933;-65
2022/04/19 08:33:07;;;;;;;1.65;1.12;;;;;;;9.68;41.89;150088.59;1763639;81;21051;-64
2022/04/19 08:35:34;;;;;;;3.60;1.45;;;;;;;9.74;41.56;150104.14;1754488;80;21050;-65
2022/04/19 08:38:01;;;;;;;2.65;1.42;;;;;;;9.86;42.01;150133.97;1755866;81;21072;-65
2022/04/19 08:40:29;;;;;;;5.33;1.55;;;;;;;9.97;41.64;150159.94;1756024;81;21040;-65
2022/04/19 08:42:57;;;;;;;2.98;1.37;;;;;;;10.10;41.95;150192.36;1756379;81;22565;-63
2022/04/19 08:45:26;;;;;;;4.55;1.45;;;;;;;10.25;41.02;150231.25;1756422;80;20976;-67
2022/04/19 08:47:54;;;;;;;7.72;1.55;;;;;;;10.28;39.55;150237.75;1766966;80;20972;-65
2022/04/19 08:50:22;;;;;;;3.25;1.50;;;;;;;10.19;39.47;150215.69;1766625;80;21033;-65
2022/04/19 08:57:29;;;;;;;1.20;1.10;;;;;;;10.14;40.18;150202.73;1779658;80;21124;-65
2022/04/19 08:58:05;;;;;;;9.20;1.40;;;;;;;10.18;39.05;150214.42;1755654;81;21083;-66
2022/04/19 09:00:32;;;;;;;6.10;1.50;;;;;;;10.18;39.53;150213.09;1726421;81;20997;-65
2022/04/19 09:03:01;;;;;;;2.35;1.22;;;;;;;10.23;39.70;150224.78;1727353;81;21084;-65
2022/04/19 09:05:30;;;;;;;4.10;1.47;;;;;;;10.28;40.01;150239.08;1756179;81;21060;-64
2022/04/19 09:07:58;;;;;;;4.33;1.40;;;;;;;10.37;38.10;150259.81;1755757;81;21521;-68
2022/04/19 09:10:34;;;;;;;3.45;1.25;;;;;;;10.36;38.60;150257.22;1756470;81;20921;-63
2022/04/19 09:13:11;;;;;;;3.17;1.20;;;;;;;10.37;38.62;150259.81;1755818;81;21099;-65
2022/04/19 09:15:44;;;;;;;2.35;1.27;;;;;;;10.42;37.47;150272.83;1756199;81;21100;-64
2022/04/19 09:18:32;;;;;;;2.00;1.47;;;;;;;10.50;37.75;150293.61;1723062;81;21044;-64
2022/04/19 09:21:06;;;;;;;1.90;1.12;;;;;;;10.64;38.14;150327.33;1755751;80;21806;-65
2022/04/19 09:23:34;;;;;;;4.40;1.37;;;;;;;10.74;37.43;150353.31;1755316;81;20985;-65
2022/04/19 09:26:05;;;;;;;3.72;1.80;;;;;;;10.75;37.32;150355.91;1756277;81;21435;-64
2022/04/19 09:28:35;;;;;;;2.42;1.20;;;;;;;10.75;37.35;150355.91;1758310;81;20961;-68
2022/04/19 09:31:08;;;;;;;2.02;1.30;;;;;;;10.77;37.42;150361.09;1755906;81;21918;-69
2022/04/19 09:33:35;;;;;;;1.27;0.90;;;;;;;10.72;35.92;150348.06;1756395;81;21284;-68
2022/04/19 09:36:04;;;;;;;1.65;1.32;;;;;;;10.64;35.77;150327.33;1750503;80;21331;-68
2022/04/19 09:38:40;;;;;;;3.95;1.32;;;;;;;10.61;36.94;150320.88;1742378;82;21028;-68
2022/04/19 09:41:13;;;;;;;2.10;1.27;;;;;;;10.68;37.52;150339.02;1744212;82;21136;-69
2022/04/19 09:43:41;;;;;;;1.87;1.30;;;;;;;10.79;36.61;150366.28;1745011;80;21018;-69
2022/04/19 09:46:08;;;;;;;2.08;1.15;;;;;;;10.85;35.58;150380.56;1743264;82;21894;-69
2022/04/19 09:48:39;;;;;;;3.37;1.10;;;;;;;10.91;36.03;150394.80;1745273;81;21373;-69
2022/04/19 09:51:09;;;;;;;1.52;1.20;;;;;;;10.99;36.01;150416.87;1740521;80;21032;-69
2022/04/19 09:53:45;;;;;;;2.33;1.37;;;;;;;11.08;36.21;150438.94;1745656;81;20950;-68
2022/04/19 09:56:15;;;;;;;3.50;1.20;;;;;;;11.16;36.21;150459.75;1745256;81;21131;-69
2022/04/19 09:58:46;;;;;;;1.40;1.00;;;;;;;11.22;36.21;150472.72;1745211;81;20978;-64
2022/04/19 10:09:27;;;;;;;3.92;1.10;;;;;;;11.49;33.72;150540.22;1745321;80;21056;-66
2022/04/19 10:11:55;;;;;;;2.30;1.57;;;;;;;11.40;34.18;150518.16;1744952;80;21192;-66
2022/04/19 10:14:23;;;;;;;2.20;1.42;;;;;;;11.36;34.02;150507.78;1745308;80;21070;-66
2022/04/19 10:16:50;;;;;;;1.30;1.10;;;;;;;11.32;34.41;150499.98;1744865;82;21051;-69
2022/04/19 10:19:17;;;;;;;2.80;1.30;;;;;;;11.35;34.83;150506.44;1737839;82;21020;-72
2022/04/19 10:21:47;;;;;;;2.62;1.10;;;;;;;11.39;34.77;150515.56;1744901;80;20889;-66
2022/04/19 10:24:17;;;;;;;3.17;1.20;;;;;;;11.39;34.60;150515.56;1730532;82;21154;-67
2022/04/19 10:26:49;;;;;;;4.55;1.20;;;;;;;11.42;34.77;150523.34;1766252;80;21307;-67
2022/04/19 10:29:33;;;;;;;1.57;1.17;;;;;;;11.48;34.33;150537.63;1734268;82;21072;-65
2022/04/19 10:32:06;;;;;;;2.47;1.30;;;;;;;11.52;34.24;150548.02;1737363;81;21044;-65
2022/04/19 10:34:37;;;;;;;5.25;1.35;;;;;;;11.54;34.08;150553.20;1719108;81;21348;-65
2022/04/19 10:37:19;;;;;;;4.65;1.32;;;;;;;11.50;34.44;150542.81;1766955;79;21887;-68
2022/04/19 10:40:00;;;;;;;4.53;1.27;;;;;;;11.47;34.99;150536.31;1734763;81;21520;-69
2022/04/19 10:42:38;;;;;;;3.05;1.15;;;;;;;11.45;34.66;150532.44;1737671;81;21435;-68
2022/04/19 10:45:25;;;;;;;2.37;1.37;;;;;;;11.50;34.91;150542.81;1746392;81;21044;-69
2022/04/19 10:47:57;;;;;;;5.67;1.20;;;;;;;11.49;34.19;150540.22;1743421;81;21305;-68
2022/04/19 10:50:44;;;;;;;1.35;1.15;;;;;;;11.51;35.15;150545.42;1747240;80;21195;-69
2022/04/19 10:53:10;;;;;;;3.47;1.30;;;;;;;11.59;34.98;150567.50;1763425;80;21086;-68
2022/04/19 10:56:01;;;;;;;2.42;1.12;;;;;;;11.60;33.93;150568.78;1755780;81;20965;-68
2022/04/19 10:58:40;;;;;;;2.52;1.20;;;;;;;11.56;34.35;150559.72;1756009;81;21438;-69
2022/04/19 11:01:11;;;;;;;4.25;1.35;;;;;;;11.53;34.39;150550.61;1756101;81;20972;-69
2022/04/19 11:03:52;;;;;;;1.72;1.47;;;;;;;11.53;34.96;150550.61;1718153;81;21226;-70
2022/04/19 11:06:38;;;;;;;2.17;1.50;;;;;;;11.64;35.13;150579.20;1754847;81;21024;-69
2022/04/19 11:09:22;;;;;;;2.77;1.40;;;;;;;11.82;35.02;150623.31;1755830;81;20960;-68
2022/04/19 11:12:03;;;;;;;6.70;1.60;;;;;;;11.98;34.21;150664.89;1755747;81;20933;-69
2022/04/19 11:14:37;;;;;;;1.55;1.30;;;;;;;12.07;34.26;150685.77;1751538;81;20940;-67
2022/04/19 11:17:28;;;;;;;2.95;1.50;;;;;;;12.17;34.79;150711.72;1756015;81;21119;-67
2022/04/19 11:20:14;;;;;;;3.87;1.47;;;;;;;12.29;34.91;150742.92;1755472;80;21016;-68
2022/04/19 11:22:51;;;;;;;2.15;1.12;;;;;;;12.42;34.63;150774.08;1755585;81;21009;-69
2022/04/19 11:25:37;;;;;;;2.30;1.40;;;;;;;12.59;34.25;150818.28;1755864;81;21486;-68
2022/04/19 11:28:11;;;;;;;2.40;1.15;;;;;;;12.65;33.55;150831.25;1738281;81;21099;-70
2022/04/19 11:30:48;;;;;;;3.15;1.40;;;;;;;12.66;33.52;150833.84;1756312;81;21209;-68
2022/04/19 11:33:33;;;;;;;2.20;1.15;;;;;;;12.69;33.68;150841.64;1752077;81;21146;-68
2022/04/19 11:36:05;;;;;;;3.02;1.20;;;;;;;12.77;33.51;150861.16;1748446;80;21043;-67
2022/04/19 11:38:47;;;;;;;4.22;1.30;;;;;;;12.84;33.53;150880.66;1756074;81;21041;-68
2022/04/19 11:46:51;;;;;;;;;;;;;;;12.78;32.92;150865.06;1758399;81;20956;-68
2022/04/19 11:49:27;;;;;;;2.65;1.50;;;;;;;12.73;32.99;150852.08;1756477;81;20175;-65
2022/04/19 11:52:09;;;;;;;1.82;1.02;;;;;;;12.73;33.21;150852.08;1756080;81;21015;-66
2022/04/19 11:54:36;;;;;;;2.20;1.30;;;;;;;12.79;33.54;150867.66;1756523;81;20949;-64
2022/04/19 11:57:09;;;;;;;2.37;1.42;;;;;;;12.89;33.04;150892.37;1755931;80;21265;-65
2022/04/19 11:59:43;;;;;;;6.10;1.37;;;;;;;12.97;33.12;150913.14;1756378;81;20984;-65
2022/04/19 12:02:17;;;;;;;4.90;1.20;;;;;;;13.05;32.70;150932.66;1755871;80;21655;-65
2022/04/19 12:04:55;;;;;;;3.08;1.05;;;;;;;13.14;32.32;150956.03;1756067;81;20961;-65
2022/04/19 12:07:24;;;;;;;3.05;1.47;;;;;;;13.13;32.14;150952.16;1756300;80;21091;-65
2022/04/19 12:09:53;;;;;;;4.40;1.30;;;;;;;13.10;32.16;150944.36;1722739;81;21024;-65
2022/04/19 12:12:21;;;;;;;3.42;1.22;;;;;;;13.11;32.11;150948.23;1755835;80;21019;-66
2022/04/19 12:14:52;;;;;;;3.80;1.40;;;;;;;13.10;31.84;150944.36;1755632;81;21026;-66
2022/04/19 12:17:20;;;;;;;5.42;1.40;;;;;;;13.11;31.70;150946.97;1755806;81;21501;-66
2022/04/19 12:19:47;;;;;;;6.60;1.40;;;;;;;13.15;31.82;150958.67;1755715;81;21387;-67
2022/04/19 12:22:21;;;;;;;1.65;1.17;;;;;;;13.24;31.98;150979.45;1751938;79;21047;-67